sensor_id;sensor_type;location;lat;lon;timestamp;temperature;humidity
63313;DHT22;49442;45.640;13.812;2023-05-10T00:00:58;14.30;92.10
63313;DHT22;49442;45.640;13.812;2023-05-10T00:03:23;14.30;92.00
63313;DHT22;49442;45.640;13.812;2023-05-10T00:05:49;14.30;92.10
63313;DHT22;49442;45.640;13.812;2023-05-10T00:08:15;14.30;92.10
63313;DHT22;49442;45.640;13.812;2023-05-10T00:10:41;14.30;92.00
63313;DHT22;49442;45.640;13.812;2023-05-10T00:13:06;14.30;91.90
63313;DHT22;49442;45.640;13.812;2023-05-10T00:15:32;14.30;92.00
63313;DHT22;49442;45.640;13.812;2023-05-10T00:17:58;14.30;92.10
63313;DHT22;49442;45.640;13.812;2023-05-10T00:20:23;14.30;92.00
63313;DHT22;49442;45.640;13.812;2023-05-10T00:22:49;14.30;92.20
63313;DHT22;49442;45.640;13.812;2023-05-10T00:25:15;14.30;92.00
63313;DHT22;49442;45.640;13.812;2023-05-10T00:27:41;14.30;92.20
63313;DHT22;49442;45.640;13.812;2023-05-10T00:30:07;14.30;92.10
63313;DHT22;49442;45.640;13.812;2023-05-10T00:32:33;14.30;92.10
63313;DHT22;49442;45.640;13.812;2023-05-10T00:34:58;14.30;92.10
63313;DHT22;49442;45.640;13.812;2023-05-10T00:37:24;14.20;92.20
63313;DHT22;49442;45.640;13.812;2023-05-10T00:39:50;14.30;92.30
63313;DHT22;49442;45.640;13.812;2023-05-10T00:42:16;14.20;92.40
63313;DHT22;49442;45.640;13.812;2023-05-10T00:44:41;14.20;92.30
63313;DHT22;49442;45.640;13.812;2023-05-10T00:47:07;14.20;92.40
63313;DHT22;49442;45.640;13.812;2023-05-10T00:49:34;14.20;92.40
63313;DHT22;49442;45.640;13.812;2023-05-10T00:52:01;14.20;92.40
63313;DHT22;49442;45.640;13.812;2023-05-10T00:54:27;14.20;92.60
63313;DHT22;49442;45.640;13.812;2023-05-10T00:56:53;14.10;92.60
63313;DHT22;49442;45.640;13.812;2023-05-10T00:59:19;14.20;92.80
63313;DHT22;49442;45.640;13.812;2023-05-10T01:01:45;14.10;92.70
63313;DHT22;49442;45.640;13.812;2023-05-10T01:04:15;14.20;92.70
63313;DHT22;49442;45.640;13.812;2023-05-10T01:06:41;14.20;92.80
63313;DHT22;49442;45.640;13.812;2023-05-10T01:09:07;14.20;92.80
63313;DHT22;49442;45.640;13.812;2023-05-10T01:11:38;14.10;92.80
63313;DHT22;49442;45.640;13.812;2023-05-10T01:14:04;14.20;92.90
63313;DHT22;49442;45.640;13.812;2023-05-10T01:16:34;14.20;92.90
63313;DHT22;49442;45.640;13.812;2023-05-10T01:19:00;14.20;92.90
63313;DHT22;49442;45.640;13.812;2023-05-10T01:21:28;14.20;92.80
63313;DHT22;49442;45.640;13.812;2023-05-10T01:29:47;14.20;92.90
63313;DHT22;49442;45.640;13.812;2023-05-10T01:35:08;14.20;92.90
63313;DHT22;49442;45.640;13.812;2023-05-10T01:40:26;14.20;93.10
63313;DHT22;49442;45.640;13.812;2023-05-10T01:43:02;14.20;93.00
63313;DHT22;49442;45.640;13.812;2023-05-10T01:45:38;14.20;93.20
63313;DHT22;49442;45.640;13.812;2023-05-10T01:48:09;14.20;93.00
63313;DHT22;49442;45.640;13.812;2023-05-10T01:50:38;14.20;93.00
63313;DHT22;49442;45.640;13.812;2023-05-10T01:53:07;14.20;93.10
63313;DHT22;49442;45.640;13.812;2023-05-10T01:55:35;14.20;93.10
63313;DHT22;49442;45.640;13.812;2023-05-10T01:58:09;14.30;93.00
63313;DHT22;49442;45.640;13.812;2023-05-10T02:00:36;14.30;92.90
63313;DHT22;49442;45.640;13.812;2023-05-10T02:03:06;14.30;92.90
63313;DHT22;49442;45.640;13.812;2023-05-10T02:05:33;14.40;92.80
63313;DHT22;49442;45.640;13.812;2023-05-10T02:08:00;14.40;92.80
63313;DHT22;49442;45.640;13.812;2023-05-10T02:10:28;14.40;92.90
63313;DHT22;49442;45.640;13.812;2023-05-10T02:12:55;14.40;92.90
63313;DHT22;49442;45.640;13.812;2023-05-10T02:15:24;14.40;93.00
63313;DHT22;49442;45.640;13.812;2023-05-10T02:17:54;14.40;92.90
63313;DHT22;49442;45.640;13.812;2023-05-10T02:20:21;14.40;92.90
63313;DHT22;49442;45.640;13.812;2023-05-10T02:22:49;14.40;93.10
63313;DHT22;49442;45.640;13.812;2023-05-10T02:25:16;14.50;92.90
63313;DHT22;49442;45.640;13.812;2023-05-10T02:27:44;14.40;92.90
63313;DHT22;49442;45.640;13.812;2023-05-10T02:30:10;14.40;93.00
63313;DHT22;49442;45.640;13.812;2023-05-10T02:32:38;14.40;92.90
63313;DHT22;49442;45.640;13.812;2023-05-10T02:35:04;14.40;93.10
63313;DHT22;49442;45.640;13.812;2023-05-10T02:37:31;14.40;93.10
63313;DHT22;49442;45.640;13.812;2023-05-10T02:39:58;14.40;93.20
63313;DHT22;49442;45.640;13.812;2023-05-10T02:42:29;14.50;93.20
63313;DHT22;49442;45.640;13.812;2023-05-10T02:44:56;14.50;93.30
63313;DHT22;49442;45.640;13.812;2023-05-10T02:47:24;14.50;93.10
63313;DHT22;49442;45.640;13.812;2023-05-10T02:49:51;14.50;93.20
63313;DHT22;49442;45.640;13.812;2023-05-10T02:52:21;14.60;93.40
63313;DHT22;49442;45.640;13.812;2023-05-10T02:54:50;14.60;93.20
63313;DHT22;49442;45.640;13.812;2023-05-10T02:57:25;14.60;93.30
63313;DHT22;49442;45.640;13.812;2023-05-10T02:59:51;14.60;93.30
63313;DHT22;49442;45.640;13.812;2023-05-10T03:02:17;14.50;93.50
63313;DHT22;49442;45.640;13.812;2023-05-10T03:04:43;14.60;93.50
63313;DHT22;49442;45.640;13.812;2023-05-10T03:07:09;14.60;93.50
63313;DHT22;49442;45.640;13.812;2023-05-10T03:09:35;14.50;93.50
63313;DHT22;49442;45.640;13.812;2023-05-10T03:12:12;14.60;93.50
63313;DHT22;49442;45.640;13.812;2023-05-10T03:17:23;14.60;93.70
63313;DHT22;49442;45.640;13.812;2023-05-10T03:20:03;14.60;93.60
63313;DHT22;49442;45.640;13.812;2023-05-10T03:22:41;14.60;93.60
63313;DHT22;49442;45.640;13.812;2023-05-10T03:25:10;14.60;93.70
63313;DHT22;49442;45.640;13.812;2023-05-10T03:27:40;14.60;94.00
63313;DHT22;49442;45.640;13.812;2023-05-10T03:30:08;14.60;94.10
63313;DHT22;49442;45.640;13.812;2023-05-10T03:32:35;14.60;94.20
63313;DHT22;49442;45.640;13.812;2023-05-10T03:35:09;14.60;94.20
63313;DHT22;49442;45.640;13.812;2023-05-10T03:37:35;14.60;93.90
63313;DHT22;49442;45.640;13.812;2023-05-10T03:40:02;14.60;93.90
63313;DHT22;49442;45.640;13.812;2023-05-10T03:42:28;14.60;94.30
63313;DHT22;49442;45.640;13.812;2023-05-10T03:44:54;14.60;94.50
63313;DHT22;49442;45.640;13.812;2023-05-10T03:47:19;14.60;94.30
63313;DHT22;49442;45.640;13.812;2023-05-10T03:49:45;14.60;94.30
63313;DHT22;49442;45.640;13.812;2023-05-10T03:52:11;14.60;94.20
63313;DHT22;49442;45.640;13.812;2023-05-10T03:54:37;14.60;94.50
63313;DHT22;49442;45.640;13.812;2023-05-10T03:57:03;14.50;94.40
63313;DHT22;49442;45.640;13.812;2023-05-10T03:59:29;14.50;94.50
63313;DHT22;49442;45.640;13.812;2023-05-10T04:01:55;14.50;94.60
63313;DHT22;49442;45.640;13.812;2023-05-10T04:04:21;14.50;94.50
63313;DHT22;49442;45.640;13.812;2023-05-10T04:06:47;14.40;94.60
63313;DHT22;49442;45.640;13.812;2023-05-10T04:09:13;14.50;94.90
63313;DHT22;49442;45.640;13.812;2023-05-10T04:11:39;14.40;94.70
63313;DHT22;49442;45.640;13.812;2023-05-10T04:14:05;14.40;94.80
63313;DHT22;49442;45.640;13.812;2023-05-10T04:16:30;14.40;94.90
63313;DHT22;49442;45.640;13.812;2023-05-10T04:18:56;14.30;94.70
63313;DHT22;49442;45.640;13.812;2023-05-10T04:21:22;14.30;94.70
63313;DHT22;49442;45.640;13.812;2023-05-10T04:23:48;14.40;94.70
63313;DHT22;49442;45.640;13.812;2023-05-10T04:26:14;14.30;94.70
63313;DHT22;49442;45.640;13.812;2023-05-10T04:28:40;14.30;94.90
63313;DHT22;49442;45.640;13.812;2023-05-10T04:31:07;14.30;94.90
63313;DHT22;49442;45.640;13.812;2023-05-10T04:33:34;14.30;94.90
63313;DHT22;49442;45.640;13.812;2023-05-10T04:35:59;14.30;94.80
63313;DHT22;49442;45.640;13.812;2023-05-10T04:38:26;14.30;94.90
63313;DHT22;49442;45.640;13.812;2023-05-10T04:40:52;14.30;95.00
63313;DHT22;49442;45.640;13.812;2023-05-10T04:43:18;14.20;95.10
63313;DHT22;49442;45.640;13.812;2023-05-10T04:45:44;14.20;95.20
63313;DHT22;49442;45.640;13.812;2023-05-10T04:48:09;14.10;95.60
63313;DHT22;49442;45.640;13.812;2023-05-10T04:50:35;14.10;95.80
63313;DHT22;49442;45.640;13.812;2023-05-10T04:53:01;14.20;95.90
63313;DHT22;49442;45.640;13.812;2023-05-10T04:55:27;14.10;96.70
63313;DHT22;49442;45.640;13.812;2023-05-10T04:57:53;14.10;96.60
63313;DHT22;49442;45.640;13.812;2023-05-10T05:00:22;14.00;96.80
63313;DHT22;49442;45.640;13.812;2023-05-10T05:02:48;14.00;96.60
63313;DHT22;49442;45.640;13.812;2023-05-10T05:05:14;14.00;97.00
63313;DHT22;49442;45.640;13.812;2023-05-10T05:07:39;13.90;97.10
63313;DHT22;49442;45.640;13.812;2023-05-10T05:10:06;13.90;97.10
63313;DHT22;49442;45.640;13.812;2023-05-10T05:12:32;13.90;97.40
63313;DHT22;49442;45.640;13.812;2023-05-10T05:14:58;13.90;97.50
63313;DHT22;49442;45.640;13.812;2023-05-10T05:17:24;13.90;97.50
63313;DHT22;49442;45.640;13.812;2023-05-10T05:19:50;13.90;97.90
63313;DHT22;49442;45.640;13.812;2023-05-10T05:22:15;13.80;98.20
63313;DHT22;49442;45.640;13.812;2023-05-10T05:24:41;13.80;99.60
63313;DHT22;49442;45.640;13.812;2023-05-10T05:27:07;13.80;99.40
63313;DHT22;49442;45.640;13.812;2023-05-10T05:29:33;13.80;99.20
63313;DHT22;49442;45.640;13.812;2023-05-10T05:31:59;13.80;99.20
63313;DHT22;49442;45.640;13.812;2023-05-10T05:34:25;13.80;99.40
63313;DHT22;49442;45.640;13.812;2023-05-10T05:36:51;13.70;99.90
63313;DHT22;49442;45.640;13.812;2023-05-10T05:39:17;13.70;99.70
63313;DHT22;49442;45.640;13.812;2023-05-10T05:41:42;13.70;99.70
63313;DHT22;49442;45.640;13.812;2023-05-10T05:44:09;13.70;99.80
63313;DHT22;49442;45.640;13.812;2023-05-10T05:46:35;13.60;99.90
63313;DHT22;49442;45.640;13.812;2023-05-10T05:49:01;13.60;99.90
63313;DHT22;49442;45.640;13.812;2023-05-10T05:51:26;13.70;99.90
63313;DHT22;49442;45.640;13.812;2023-05-10T05:53:52;13.70;99.90
63313;DHT22;49442;45.640;13.812;2023-05-10T05:56:18;13.70;99.90
63313;DHT22;49442;45.640;13.812;2023-05-10T05:58:50;13.70;99.90
63313;DHT22;49442;45.640;13.812;2023-05-10T06:01:16;13.70;99.90
63313;DHT22;49442;45.640;13.812;2023-05-10T06:03:42;13.70;99.90
63313;DHT22;49442;45.640;13.812;2023-05-10T06:06:07;13.80;99.90
63313;DHT22;49442;45.640;13.812;2023-05-10T06:08:33;13.80;99.90
63313;DHT22;49442;45.640;13.812;2023-05-10T06:11:00;13.80;99.90
63313;DHT22;49442;45.640;13.812;2023-05-10T06:13:25;13.80;99.90
63313;DHT22;49442;45.640;13.812;2023-05-10T06:16:00;13.80;99.90
63313;DHT22;49442;45.640;13.812;2023-05-10T06:18:26;13.80;99.90
63313;DHT22;49442;45.640;13.812;2023-05-10T06:20:52;13.90;99.90
63313;DHT22;49442;45.640;13.812;2023-05-10T06:23:21;13.90;99.90
63313;DHT22;49442;45.640;13.812;2023-05-10T06:25:47;13.90;99.90
63313;DHT22;49442;45.640;13.812;2023-05-10T06:28:14;13.90;99.90
63313;DHT22;49442;45.640;13.812;2023-05-10T06:30:39;13.90;99.90
63313;DHT22;49442;45.640;13.812;2023-05-10T06:33:06;14.00;99.90
63313;DHT22;49442;45.640;13.812;2023-05-10T06:35:32;14.00;99.90
63313;DHT22;49442;45.640;13.812;2023-05-10T06:37:58;14.00;99.90
63313;DHT22;49442;45.640;13.812;2023-05-10T06:40:24;14.00;99.90
63313;DHT22;49442;45.640;13.812;2023-05-10T06:42:50;14.10;99.90
63313;DHT22;49442;45.640;13.812;2023-05-10T06:45:16;14.10;99.90
63313;DHT22;49442;45.640;13.812;2023-05-10T06:47:42;14.10;99.90
63313;DHT22;49442;45.640;13.812;2023-05-10T06:50:09;14.10;99.90
63313;DHT22;49442;45.640;13.812;2023-05-10T06:52:35;14.10;99.90
63313;DHT22;49442;45.640;13.812;2023-05-10T06:55:01;14.10;99.90
63313;DHT22;49442;45.640;13.812;2023-05-10T06:57:27;14.10;99.90
63313;DHT22;49442;45.640;13.812;2023-05-10T06:59:52;14.10;99.90
63313;DHT22;49442;45.640;13.812;2023-05-10T07:02:18;14.10;99.90
63313;DHT22;49442;45.640;13.812;2023-05-10T07:04:44;14.00;99.90
63313;DHT22;49442;45.640;13.812;2023-05-10T07:07:12;14.10;99.90
63313;DHT22;49442;45.640;13.812;2023-05-10T07:09:38;14.10;99.90
63313;DHT22;49442;45.640;13.812;2023-05-10T07:12:04;14.10;99.90
63313;DHT22;49442;45.640;13.812;2023-05-10T07:14:30;14.10;99.90
63313;DHT22;49442;45.640;13.812;2023-05-10T07:16:56;14.10;99.90
63313;DHT22;49442;45.640;13.812;2023-05-10T07:19:21;14.10;99.90
63313;DHT22;49442;45.640;13.812;2023-05-10T07:21:47;14.10;99.90
63313;DHT22;49442;45.640;13.812;2023-05-10T07:24:13;14.10;99.90
63313;DHT22;49442;45.640;13.812;2023-05-10T07:26:39;14.10;99.90
63313;DHT22;49442;45.640;13.812;2023-05-10T07:29:05;14.10;99.90
63313;DHT22;49442;45.640;13.812;2023-05-10T07:31:30;14.10;99.90
63313;DHT22;49442;45.640;13.812;2023-05-10T07:33:56;14.10;99.90
63313;DHT22;49442;45.640;13.812;2023-05-10T07:36:22;14.10;99.90
63313;DHT22;49442;45.640;13.812;2023-05-10T07:38:47;14.00;99.90
63313;DHT22;49442;45.640;13.812;2023-05-10T07:41:14;14.00;99.90
63313;DHT22;49442;45.640;13.812;2023-05-10T07:43:40;14.10;99.90
63313;DHT22;49442;45.640;13.812;2023-05-10T07:46:06;14.10;99.90
63313;DHT22;49442;45.640;13.812;2023-05-10T07:48:32;14.10;99.90
63313;DHT22;49442;45.640;13.812;2023-05-10T07:50:57;14.00;99.90
63313;DHT22;49442;45.640;13.812;2023-05-10T07:53:23;14.00;99.90
63313;DHT22;49442;45.640;13.812;2023-05-10T07:55:54;14.00;99.90
63313;DHT22;49442;45.640;13.812;2023-05-10T07:58:22;14.00;99.90
63313;DHT22;49442;45.640;13.812;2023-05-10T08:00:48;14.00;99.90
63313;DHT22;49442;45.640;13.812;2023-05-10T08:03:14;14.10;99.90
63313;DHT22;49442;45.640;13.812;2023-05-10T08:05:40;14.10;99.90
63313;DHT22;49442;45.640;13.812;2023-05-10T08:08:06;14.10;99.90
63313;DHT22;49442;45.640;13.812;2023-05-10T08:10:32;14.10;99.90
63313;DHT22;49442;45.640;13.812;2023-05-10T08:12:58;14.20;99.90
63313;DHT22;49442;45.640;13.812;2023-05-10T08:15:26;14.20;99.90
63313;DHT22;49442;45.640;13.812;2023-05-10T08:17:52;14.20;99.90
63313;DHT22;49442;45.640;13.812;2023-05-10T08:20:18;14.20;99.90
63313;DHT22;49442;45.640;13.812;2023-05-10T08:22:45;14.20;99.90
63313;DHT22;49442;45.640;13.812;2023-05-10T08:25:11;14.30;99.90
63313;DHT22;49442;45.640;13.812;2023-05-10T08:27:37;14.20;99.90
63313;DHT22;49442;45.640;13.812;2023-05-10T08:30:03;14.20;99.90
63313;DHT22;49442;45.640;13.812;2023-05-10T08:32:29;14.20;99.90
63313;DHT22;49442;45.640;13.812;2023-05-10T08:34:55;14.20;99.90
63313;DHT22;49442;45.640;13.812;2023-05-10T08:37:22;14.10;99.90
63313;DHT22;49442;45.640;13.812;2023-05-10T08:39:48;14.10;99.90
63313;DHT22;49442;45.640;13.812;2023-05-10T08:42:16;14.10;99.90
63313;DHT22;49442;45.640;13.812;2023-05-10T08:44:48;14.00;99.90
63313;DHT22;49442;45.640;13.812;2023-05-10T08:47:16;13.90;99.90
63313;DHT22;49442;45.640;13.812;2023-05-10T08:49:44;13.80;99.90
63313;DHT22;49442;45.640;13.812;2023-05-10T08:52:15;13.70;99.90
63313;DHT22;49442;45.640;13.812;2023-05-10T08:54:42;13.60;99.90
63313;DHT22;49442;45.640;13.812;2023-05-10T08:57:08;13.50;99.90
63313;DHT22;49442;45.640;13.812;2023-05-10T08:59:34;13.40;99.90
63313;DHT22;49442;45.640;13.812;2023-05-10T09:02:00;13.30;99.90
63313;DHT22;49442;45.640;13.812;2023-05-10T09:04:27;13.30;99.90
63313;DHT22;49442;45.640;13.812;2023-05-10T09:06:54;13.30;99.90
63313;DHT22;49442;45.640;13.812;2023-05-10T09:09:20;13.30;99.90
63313;DHT22;49442;45.640;13.812;2023-05-10T09:11:47;13.30;99.90
63313;DHT22;49442;45.640;13.812;2023-05-10T09:14:13;13.30;99.90
63313;DHT22;49442;45.640;13.812;2023-05-10T09:16:40;13.40;99.90
63313;DHT22;49442;45.640;13.812;2023-05-10T09:19:07;13.40;99.90
63313;DHT22;49442;45.640;13.812;2023-05-10T09:21:35;13.40;99.90
63313;DHT22;49442;45.640;13.812;2023-05-10T09:24:06;13.50;99.90
63313;DHT22;49442;45.640;13.812;2023-05-10T09:26:32;13.40;99.90
63313;DHT22;49442;45.640;13.812;2023-05-10T09:28:59;13.40;99.90
63313;DHT22;49442;45.640;13.812;2023-05-10T09:31:49;13.40;99.90
63313;DHT22;49442;45.640;13.812;2023-05-10T09:34:29;13.30;99.90
63313;DHT22;49442;45.640;13.812;2023-05-10T09:37:00;13.40;99.90
63313;DHT22;49442;45.640;13.812;2023-05-10T09:39:32;13.40;99.90
63313;DHT22;49442;45.640;13.812;2023-05-10T09:42:02;13.40;99.90
63313;DHT22;49442;45.640;13.812;2023-05-10T09:44:29;13.30;99.90
63313;DHT22;49442;45.640;13.812;2023-05-10T09:46:55;13.30;99.90
63313;DHT22;49442;45.640;13.812;2023-05-10T09:49:21;13.30;99.90
63313;DHT22;49442;45.640;13.812;2023-05-10T09:51:47;13.40;99.90
63313;DHT22;49442;45.640;13.812;2023-05-10T09:54:22;13.30;99.90
63313;DHT22;49442;45.640;13.812;2023-05-10T09:56:49;13.30;99.90
63313;DHT22;49442;45.640;13.812;2023-05-10T09:59:15;13.30;99.90
63313;DHT22;49442;45.640;13.812;2023-05-10T10:01:49;13.30;99.90
63313;DHT22;49442;45.640;13.812;2023-05-10T10:04:15;13.30;99.90
63313;DHT22;49442;45.640;13.812;2023-05-10T10:06:42;13.30;99.90
63313;DHT22;49442;45.640;13.812;2023-05-10T10:09:08;13.40;99.90
63313;DHT22;49442;45.640;13.812;2023-05-10T10:11:36;13.30;99.90
63313;DHT22;49442;45.640;13.812;2023-05-10T10:14:02;13.30;99.90
63313;DHT22;49442;45.640;13.812;2023-05-10T10:16:29;13.40;99.90
63313;DHT22;49442;45.640;13.812;2023-05-10T10:18:55;13.30;99.90
63313;DHT22;49442;45.640;13.812;2023-05-10T10:21:22;13.30;99.90
63313;DHT22;49442;45.640;13.812;2023-05-10T10:23:48;13.20;99.90
63313;DHT22;49442;45.640;13.812;2023-05-10T10:26:17;13.20;99.90
63313;DHT22;49442;45.640;13.812;2023-05-10T10:31:32;13.20;99.90
63313;DHT22;49442;45.640;13.812;2023-05-10T10:34:07;13.20;99.90
63313;DHT22;49442;45.640;13.812;2023-05-10T10:36:45;13.20;99.90
63313;DHT22;49442;45.640;13.812;2023-05-10T10:39:12;13.30;99.90
63313;DHT22;49442;45.640;13.812;2023-05-10T10:41:57;13.40;99.90
63313;DHT22;49442;45.640;13.812;2023-05-10T10:44:24;13.30;99.90
63313;DHT22;49442;45.640;13.812;2023-05-10T10:49:30;13.50;99.90
63313;DHT22;49442;45.640;13.812;2023-05-10T10:52:14;13.50;99.90
63313;DHT22;49442;45.640;13.812;2023-05-10T10:54:41;13.60;99.90
63313;DHT22;49442;45.640;13.812;2023-05-10T10:57:18;13.60;99.90
63313;DHT22;49442;45.640;13.812;2023-05-10T10:59:44;13.60;99.90
63313;DHT22;49442;45.640;13.812;2023-05-10T11:02:34;13.60;99.90
63313;DHT22;49442;45.640;13.812;2023-05-10T11:08:00;13.60;99.90
63313;DHT22;49442;45.640;13.812;2023-05-10T11:10:26;13.70;99.90
63313;DHT22;49442;45.640;13.812;2023-05-10T11:13:02;13.70;99.90
63313;DHT22;49442;45.640;13.812;2023-05-10T11:17:56;13.70;99.90
63313;DHT22;49442;45.640;13.812;2023-05-10T11:20:22;13.70;99.90
63313;DHT22;49442;45.640;13.812;2023-05-10T11:22:54;13.80;99.90
63313;DHT22;49442;45.640;13.812;2023-05-10T11:25:26;13.70;99.90
63313;DHT22;49442;45.640;13.812;2023-05-10T11:27:52;13.80;99.90
63313;DHT22;49442;45.640;13.812;2023-05-10T11:30:17;13.80;99.90
63313;DHT22;49442;45.640;13.812;2023-05-10T11:32:43;13.70;99.90
63313;DHT22;49442;45.640;13.812;2023-05-10T11:35:12;13.80;99.90
63313;DHT22;49442;45.640;13.812;2023-05-10T11:37:41;13.90;99.90
63313;DHT22;49442;45.640;13.812;2023-05-10T11:40:09;13.90;99.90
63313;DHT22;49442;45.640;13.812;2023-05-10T11:42:38;13.90;99.90
63313;DHT22;49442;45.640;13.812;2023-05-10T11:45:05;13.90;99.90
63313;DHT22;49442;45.640;13.812;2023-05-10T11:47:31;13.90;99.90
63313;DHT22;49442;45.640;13.812;2023-05-10T11:49:57;13.90;99.90
63313;DHT22;49442;45.640;13.812;2023-05-10T11:52:23;13.90;99.90
63313;DHT22;49442;45.640;13.812;2023-05-10T11:54:53;13.90;99.90
63313;DHT22;49442;45.640;13.812;2023-05-10T11:57:21;14.00;99.90
63313;DHT22;49442;45.640;13.812;2023-05-10T11:59:54;14.00;99.90
63313;DHT22;49442;45.640;13.812;2023-05-10T12:02:21;14.10;99.90
63313;DHT22;49442;45.640;13.812;2023-05-10T12:04:47;14.30;99.90
63313;DHT22;49442;45.640;13.812;2023-05-10T12:07:13;14.30;99.90
63313;DHT22;49442;45.640;13.812;2023-05-10T12:10:34;14.30;99.90
63313;DHT22;49442;45.640;13.812;2023-05-10T12:12:51;14.40;99.90
63313;DHT22;49442;45.640;13.812;2023-05-10T12:15:21;14.50;99.90
63313;DHT22;49442;45.640;13.812;2023-05-10T12:17:48;14.50;99.90
63313;DHT22;49442;45.640;13.812;2023-05-10T12:20:22;14.60;99.90
63313;DHT22;49442;45.640;13.812;2023-05-10T12:22:58;14.70;99.90
63313;DHT22;49442;45.640;13.812;2023-05-10T12:25:29;14.70;99.90
63313;DHT22;49442;45.640;13.812;2023-05-10T12:27:57;14.70;99.90
63313;DHT22;49442;45.640;13.812;2023-05-10T12:30:31;14.70;99.90
63313;DHT22;49442;45.640;13.812;2023-05-10T12:33:08;14.70;99.90
63313;DHT22;49442;45.640;13.812;2023-05-10T12:35:47;14.70;99.90
63313;DHT22;49442;45.640;13.812;2023-05-10T12:38:45;14.70;99.90
63313;DHT22;49442;45.640;13.812;2023-05-10T12:41:15;14.70;99.90
63313;DHT22;49442;45.640;13.812;2023-05-10T12:43:41;14.70;99.90
63313;DHT22;49442;45.640;13.812;2023-05-10T12:46:15;14.70;99.90
63313;DHT22;49442;45.640;13.812;2023-05-10T12:48:42;14.70;99.90
63313;DHT22;49442;45.640;13.812;2023-05-10T12:51:08;14.70;99.90
63313;DHT22;49442;45.640;13.812;2023-05-10T12:53:39;14.60;99.90
63313;DHT22;49442;45.640;13.812;2023-05-10T12:56:05;14.70;99.90
63313;DHT22;49442;45.640;13.812;2023-05-10T12:58:31;14.80;99.90
63313;DHT22;49442;45.640;13.812;2023-05-10T13:00:58;14.70;99.90
63313;DHT22;49442;45.640;13.812;2023-05-10T13:03:24;14.70;99.90
63313;DHT22;49442;45.640;13.812;2023-05-10T13:05:50;14.70;99.90
63313;DHT22;49442;45.640;13.812;2023-05-10T13:08:15;14.70;99.90
63313;DHT22;49442;45.640;13.812;2023-05-10T13:10:41;14.70;99.90
63313;DHT22;49442;45.640;13.812;2023-05-10T13:13:07;14.80;99.90
63313;DHT22;49442;45.640;13.812;2023-05-10T13:15:33;14.70;99.90
63313;DHT22;49442;45.640;13.812;2023-05-10T13:17:59;14.70;99.90
63313;DHT22;49442;45.640;13.812;2023-05-10T13:20:25;14.70;99.90
63313;DHT22;49442;45.640;13.812;2023-05-10T13:22:51;14.70;99.90
63313;DHT22;49442;45.640;13.812;2023-05-10T13:25:17;14.70;99.90
63313;DHT22;49442;45.640;13.812;2023-05-10T13:27:43;14.70;99.90
63313;DHT22;49442;45.640;13.812;2023-05-10T13:30:09;14.70;99.90
63313;DHT22;49442;45.640;13.812;2023-05-10T13:32:35;14.70;99.90
63313;DHT22;49442;45.640;13.812;2023-05-10T13:35:02;14.70;99.90
63313;DHT22;49442;45.640;13.812;2023-05-10T13:37:29;14.70;99.90
63313;DHT22;49442;45.640;13.812;2023-05-10T13:39:55;14.70;99.90
63313;DHT22;49442;45.640;13.812;2023-05-10T13:42:22;14.70;99.90
63313;DHT22;49442;45.640;13.812;2023-05-10T13:44:48;14.70;99.90
63313;DHT22;49442;45.640;13.812;2023-05-10T13:47:14;14.60;99.90
63313;DHT22;49442;45.640;13.812;2023-05-10T13:49:40;14.60;99.90
63313;DHT22;49442;45.640;13.812;2023-05-10T13:52:05;14.60;99.90
63313;DHT22;49442;45.640;13.812;2023-05-10T13:54:35;14.50;99.90
63313;DHT22;49442;45.640;13.812;2023-05-10T13:57:02;14.50;99.90
63313;DHT22;49442;45.640;13.812;2023-05-10T13:59:29;14.50;99.90
63313;DHT22;49442;45.640;13.812;2023-05-10T14:01:58;14.50;99.90
63313;DHT22;49442;45.640;13.812;2023-05-10T14:04:24;14.50;99.90
63313;DHT22;49442;45.640;13.812;2023-05-10T14:06:50;14.40;99.90
63313;DHT22;49442;45.640;13.812;2023-05-10T14:09:16;14.40;99.90
63313;DHT22;49442;45.640;13.812;2023-05-10T14:11:42;14.40;99.90
63313;DHT22;49442;45.640;13.812;2023-05-10T14:14:12;14.40;99.90
63313;DHT22;49442;45.640;13.812;2023-05-10T14:16:42;14.40;99.90
63313;DHT22;49442;45.640;13.812;2023-05-10T14:19:08;14.40;99.90
63313;DHT22;49442;45.640;13.812;2023-05-10T14:21:34;14.30;99.90
63313;DHT22;49442;45.640;13.812;2023-05-10T14:23:59;14.30;99.90
63313;DHT22;49442;45.640;13.812;2023-05-10T14:26:26;14.30;99.90
63313;DHT22;49442;45.640;13.812;2023-05-10T14:28:52;14.30;99.90
63313;DHT22;49442;45.640;13.812;2023-05-10T14:31:18;14.30;99.90
63313;DHT22;49442;45.640;13.812;2023-05-10T14:33:48;14.30;99.90
63313;DHT22;49442;45.640;13.812;2023-05-10T14:36:14;14.30;99.90
63313;DHT22;49442;45.640;13.812;2023-05-10T14:38:40;14.20;99.90
63313;DHT22;49442;45.640;13.812;2023-05-10T14:41:06;14.20;99.90
63313;DHT22;49442;45.640;13.812;2023-05-10T14:43:32;14.20;99.90
63313;DHT22;49442;45.640;13.812;2023-05-10T14:45:58;14.20;99.90
63313;DHT22;49442;45.640;13.812;2023-05-10T14:48:24;14.10;99.90
63313;DHT22;49442;45.640;13.812;2023-05-10T14:50:50;14.20;99.90
63313;DHT22;49442;45.640;13.812;2023-05-10T14:53:17;14.10;99.90
63313;DHT22;49442;45.640;13.812;2023-05-10T14:55:43;14.10;99.90
63313;DHT22;49442;45.640;13.812;2023-05-10T14:58:09;14.00;99.90
63313;DHT22;49442;45.640;13.812;2023-05-10T15:00:35;14.00;99.90
63313;DHT22;49442;45.640;13.812;2023-05-10T15:03:01;14.00;99.90
63313;DHT22;49442;45.640;13.812;2023-05-10T15:05:26;14.00;99.90
63313;DHT22;49442;45.640;13.812;2023-05-10T15:07:52;14.00;99.90
63313;DHT22;49442;45.640;13.812;2023-05-10T15:10:18;14.00;99.90
63313;DHT22;49442;45.640;13.812;2023-05-10T15:12:43;14.00;99.90
63313;DHT22;49442;45.640;13.812;2023-05-10T15:15:09;14.00;99.90
63313;DHT22;49442;45.640;13.812;2023-05-10T15:17:35;14.00;99.90
63313;DHT22;49442;45.640;13.812;2023-05-10T15:20:02;14.00;99.90
63313;DHT22;49442;45.640;13.812;2023-05-10T15:22:30;14.00;99.90
63313;DHT22;49442;45.640;13.812;2023-05-10T15:24:58;14.00;99.90
63313;DHT22;49442;45.640;13.812;2023-05-10T15:27:24;14.00;99.90
63313;DHT22;49442;45.640;13.812;2023-05-10T15:29:50;13.90;99.90
63313;DHT22;49442;45.640;13.812;2023-05-10T15:32:16;13.90;99.90
63313;DHT22;49442;45.640;13.812;2023-05-10T15:34:42;13.90;99.90
63313;DHT22;49442;45.640;13.812;2023-05-10T15:37:07;13.90;99.90
63313;DHT22;49442;45.640;13.812;2023-05-10T15:39:33;13.90;99.90
63313;DHT22;49442;45.640;13.812;2023-05-10T15:41:59;13.80;99.90